METAR Data
IDs: Format: Raw Decoded Include TAF

Data at: 0942 UTC 26 Jan 2020

KJVL 260915Z AUTO 27008KT 10SM OVC012 00/00 A2991 RMK AO2
KJVL 260855Z AUTO 27010KT 10SM OVC012 00/00 A2991 RMK AO2
KJVL 260835Z AUTO 27008KT 10SM OVC012 01/00 A2991 RMK AO2
KJVL 260815Z AUTO 28008KT 10SM OVC012 01/00 A2991 RMK AO2
KJVL 260755Z AUTO 27008KT 10SM BKN012 OVC040 01/00 A2990 RMK AO2
KJVL 260735Z AUTO 27008KT 10SM BKN012 BKN040 OVC048 01/00 A2990 RMK AO2
KJVL 260715Z AUTO 27008KT 10SM SCT014 OVC048 01/00 A2990 RMK AO2
KJVL 260655Z AUTO 27008KT 10SM SCT014 BKN046 OVC055 01/00 A2990 RMK AO2
KJVL 260635Z AUTO 27008KT 10SM BKN044 BKN055 OVC100 01/00 A2989 RMK AO2
KJVL 260615Z AUTO 27006KT 10SM SCT014 OVC044 01/00 A2989 RMK AO2
KJVL 260555Z AUTO 27007KT 10SM BKN014 BKN023 OVC030 01/01 A2990 RMK AO2
KJVL 260535Z AUTO 27007KT 7SM SCT014 BKN023 OVC029 01/01 A2990 RMK AO2
KJVL 260515Z AUTO 28007KT 10SM SCT009 OVC014 01/01 A2990 RMK AO2
KJVL 260455Z AUTO 28008KT 10SM OVC012 01/01 A2989 RMK AO2
KJVL 260435Z AUTO 27008KT 10SM OVC012 01/01 A2989 RMK AO2
KJVL 260415Z AUTO 27008KT 10SM OVC010 01/01 A2989 RMK AO2
KJVL 260355Z AUTO 27006KT 7SM OVC010 01/01 A2989 RMK AO2
KJVL 260335Z AUTO 28006KT 10SM OVC010 01/01 A2989 RMK AO2
KJVL 260315Z AUTO 28007KT 10SM OVC010 01/01 A2988 RMK AO2
KJVL 260255Z AUTO 28006KT 10SM BKN010 OVC014 01/01 A2988 RMK AO2
KJVL 260245Z 29008KT 10SM BKN010 OVC014 02/02 A2988 RMK LAST
KJVL 260145Z 29006KT 10SM OVC012 01/01 A2988
KJVL 260045Z 28010KT 10SM OVC012 02/02 A2988
KJVL 252245Z 28010KT 8SM SCT010 OVC015 02/02 A2984
KJVL 252145Z 29011KT 5SM BR BKN010 OVC015 02/02 A2983
KJVL 252045Z 30011G16KT 6SM BR OVC010 02/02 A2982
KJVL 251945Z 29011KT 5SM BR BKN009 OVC017 02/02 A2981 RMK SNE36
KJVL 251845Z 28010KT 2 1/2SM -SN BKN005 OVC012 02/02 A2981
KJVL 251745Z 28009KT 2 1/2SM -SN BKN005 OVC010 02/02 A2981
KJVL 251645Z 28008KT 4SM -SN SCT007 BKN017 OVC024 02/02 A2982
KJVL 251545Z 29008KT 7SM BKN007 OVC013 02/02 A2981
KJVL 251445Z 29006KT 5SM -SN SCT005 BKN009 OVC016 01/01 A2981
KJVL 251345Z 29005KT 3SM -SN OVC005 01/01 A2980
KJVL 251245Z 29004KT 2SM -SN OVC005 01/01 A2978
KJVL 251145Z 29004KT 2SM -SN OVC005 01/01 A2978 RMK FIRST
KJVL 251055Z AUTO 29004KT 4SM -SN BKN005 OVC009 01/01 A2977 RMK AO2
KJVL 251035Z AUTO 29004KT 4SM -SN BKN005 OVC010 01/01 A2977 RMK AO2
KJVL 251015Z AUTO 29005KT 3SM -SN BKN003 BKN010 01/01 A2977 RMK AO2
KJVL 250955Z AUTO 30004KT 2SM -SN SCT003 SCT008 01/01 A2977 RMK AO2
KJVL 250935Z AUTO 30004KT 2SM -SN BKN003 OVC008 01/01 A2977 RMK AO2
KJVL 250915Z AUTO 30004KT 1 3/4SM -SN SCT001 SCT010 BKN110 01/01 A2977 RMK AO2
KJVL 250855Z AUTO 29004KT 2SM -SN SCT095 SCT110 01/01 A2977 RMK AO2
KJVL 250835Z AUTO 30004KT 1 1/2SM -SN VV007 01/01 A2977 RMK AO2
KJVL 250815Z AUTO 30003KT 1 1/2SM -SN VV007 01/01 A2978 RMK AO2
KJVL 250755Z AUTO 30004KT 1 1/4SM -SN VV007 01/01 A2977 RMK AO2
KJVL 250735Z AUTO 31004KT 1 1/4SM -SN VV007 01/01 A2977 RMK AO2
KJVL 250715Z AUTO 31004KT 1 1/2SM -SN VV007 01/01 A2977 RMK AO2
KJVL 250655Z AUTO 31003KT 1 1/4SM -SN VV007 01/01 A2977 RMK AO2
KJVL 250635Z AUTO 30003KT 1 1/4SM -SN VV007 01/01 A2977 RMK AO2
KJVL 250615Z AUTO 30003KT 1 1/4SM -SN VV007 01/01 A2977 RMK AO2
KJVL 250555Z AUTO 31004KT 1 1/4SM -SN VV007 01/01 A2977 RMK AO2
KJVL 250535Z AUTO 31004KT 1 1/2SM -SN SCT004 SCT011 01/01 A2978 RMK AO2
KJVL 250515Z AUTO 32005KT 2 1/2SM -SN BKN004 BKN011 01/01 A2978 RMK AO2
KJVL 250455Z AUTO 32005KT 3SM -SN SCT004 SCT016 SCT085 01/01 A2978 RMK AO2
KJVL 250435Z AUTO 33005KT 2 1/2SM -SN BKN004 BKN016 BKN085 01/01 A2978 RMK AO2
KJVL 250415Z AUTO 34004KT 4SM UP SCT004 SCT023 01/01 A2978 RMK AO2
KJVL 250355Z AUTO 34004KT 2 1/2SM -SN SCT004 SCT011 SCT023 01/01 A2978 RMK AO2
KJVL 250335Z AUTO 34003KT 2 1/2SM -SN CLR 01/01 A2978 RMK AO2
KJVL 250315Z AUTO 33003KT 2SM -SN CLR 01/01 A2979 RMK AO2
KJVL 250255Z AUTO 00000KT 2SM -SN SCT005 SCT009 01/01 A2980 RMK AO2
KJVL 250245Z 00000KT 2SM -SN BKN002 BKN007 OVC011 01/01 A2980 RMK LAST
KJVL 250145Z 00000KT 2SM -SN SCT004 BKN090 OVC110 01/01 A2980
KJVL 250045Z 01005KT 4SM -RA OVC004 02/02 A2980
KJVL 242345Z 01007KT 1/2SM RA FG OVC002 02/02 A2980 RMK RAB33
KJVL 242245Z 02006KT 1/4SM FG OVC002 02/02 A2980
KJVL 242145Z 03007KT 1/4SM FG OVC002 02/02 A2980